Silver Spring, PA (17575)

5:34 PM EST on February 08, 2016 (GMT -0500)
Landisville | | Change Station
CLOSE
Current Station
Personal Weather Station
Location: Pennsylvania, PA
Elevation: 456 ft
Nearby Weather Stations
Active Advisory: Winter Storm Warning

Elev 456 ft 40.08 °N, 76.41 °W | Updated 10 seconds ago

Overcast
Overcast
39.9 °F
Feels Like 40 °F
N
0.4
Wind Variable Wind from North
Gusts 2.5 mph

Today
High -- | Low -- °F
--% Chance of Precip.
Yesterday
High -- | Low -- °F
Precip. -- in
Pressure 29.70 in
Visibility 10.0 miles
Clouds Overcast 4300 ft
Windchill 40 °F
Dew Point 26 °F
Humidity 58%
Rainfall 0.00 in
Snow Depth Not available.
7:07 AM 5:32 PM
New Moon, 0% visible
METAR KLNS 082153Z 12006KT 10SM OVC043 03/M02 A2969 RMK AO2 SLP058 T00331017
Pressure 29.70 in
Visibility 10.0 miles
Clouds Overcast 4300 ft
Windchill 40 °F
Dew Point 26 °F
Humidity 58%
Rainfall 0.00 in
Snow Depth Not available.
7:07 AM 5:32 PM
New Moon, 0% visible
METAR KLNS 082153Z 12006KT 10SM OVC043 03/M02 A2969 RMK AO2 SLP058 T00331017

10-Day Weather Forecast

Almanac

Astronomy

Feb. 08, 2016 Rise Set
Actual Time
Civil Twilight
Nautical Twilight
Astronomical Twilight
Moon
Length of Visible Light
Length of Day
Tomorrow will be .
, % of the Moon is Illuminated

Today's Extremes

State Highs State Lows

Community

WunderPhotos

Upload Photos

1,891,518 photos uploaded!

WunderBlog® & News

Nearby

Air Quality

  Air Quality AQ Index Pollutant
Not available.

Snow Depth

Station Depth Elevation

Earthquake Activity

City Distance Mag. Time & Date
Minimum magnitude displayed is 2.5.

Coastal Water Temperatures

Place Temperature

Stations

Nearby Weather Stations

Station Location Temp. Windchill Dew Point Humidity Wind Precip. Elev Updated Type
                   

Watches & Warnings

Winter Storm Warning
Issued: 2:21 PM EST Feb. 8, 2016 – National Weather Service

... Winter Storm Warning in effect from midnight tonight to 5 am
EST Wednesday...

The National Weather Service in State College has issued a Winter
Storm Warning for snow... which is in effect from midnight tonight
to 5 am EST Wednesday. The Winter Storm Watch is no longer in
effect.

* Snow accumulations... 4 to 8 inches.

* Timing... rain/snow mix this evening will transition to snow
after midnight and continue through Tuesday. The period of most
intense snow will be during the day Tuesday.

* Impacts... dangerous travel conditions especially during the
Tuesday peak commute.

Precautionary/preparedness actions...

Dangerous winter weather conditions are expected or occurring.
Use extreme caution if traveling. For the latest weather
information... go to weather.Gov/statecollege or monitor NOAA
Weather Radio.

Report snow or ice accumulation to the National Weather Service
State College by sending an email to ctp.Stormreports@noaa.Gov...
posting to the NWS State College facebook Page... or tweet
@nwsstatecollege with the hashtag c... T... p... W... x.